Terminal Aerodrome Forecast
Issued by NWS

Home | Current Version | Previous Version | Text Only | Print | Product List | Glossary Off
Versions: 1 2 3 4 5 6 7 8 9 10 11 12 13 14 15 16 17 18 19 20 21 22 23 24 25 26 27 28 29 30

088
FTUS43 KBIS 251008 AAB
TAFMOT
TAF AMD
KMOT 251008Z 2510/2606 02004KT P6SM -SHRA VCTS OVC080CB
     FM251100 04010KT 6SM SHRA OVC030
     FM252000 06011KT P6SM SHRA VCTS OVC020CB
     FM260400 36006KT P6SM SHRA VCTS OVC008CB=

USA.gov is the U.S. government's official web portal to all federal, state and local government web resources and services.